createdAt,value
2023-09-21T00:00:58.498Z,20.25
2023-09-21T00:05:56.023Z,19.25
2023-09-21T00:10:51.894Z,20.25
2023-09-21T00:15:45.477Z,20.14
2023-09-21T00:20:44.111Z,20.04
2023-09-21T00:25:38.211Z,20.00
2023-09-21T00:30:32.912Z,20.04
2023-09-21T00:35:28.663Z,20.00
2023-09-21T00:40:23.740Z,19.95
2023-09-21T00:45:19.494Z,19.73
2023-09-21T00:50:15.528Z,19.93
2023-09-21T00:55:09.975Z,19.92
2023-09-21T01:00:07.905Z,19.89
2023-09-21T01:05:02.301Z,19.45
2023-09-21T01:09:58.070Z,19.70
2023-09-21T01:15:10.536Z,19.59
2023-09-21T01:20:20.089Z,19.30
2023-09-21T01:25:16.165Z,19.14
2023-09-21T01:30:13.268Z,18.53
2023-09-21T01:35:08.992Z,19.49
2023-09-21T01:40:02.793Z,19.36
2023-09-21T01:44:57.681Z,18.82
2023-09-21T01:49:51.262Z,19.37
2023-09-21T01:54:44.485Z,19.22
2023-09-21T01:59:37.835Z,19.24
2023-09-21T02:04:32.800Z,18.87
2023-09-21T02:09:27.510Z,19.15
2023-09-21T02:14:21.363Z,19.04
2023-09-21T02:19:15.475Z,19.22
2023-09-21T02:24:10.826Z,19.33
2023-09-21T02:29:05.610Z,19.38
2023-09-21T02:33:59.444Z,19.52
2023-09-21T02:38:52.652Z,19.39
2023-09-21T02:43:47.887Z,19.20
2023-09-21T02:48:42.610Z,19.01
2023-09-21T02:53:36.341Z,18.95
2023-09-21T02:58:29.741Z,18.14
2023-09-21T03:03:24.874Z,18.63
2023-09-21T03:08:19.846Z,18.53
2023-09-21T03:13:18.692Z,18.44
2023-09-21T03:18:16.414Z,18.48
2023-09-21T03:23:13.448Z,18.40
2023-09-21T03:28:11.557Z,18.26
2023-09-21T03:33:06.845Z,18.30
2023-09-21T03:38:00.743Z,18.09
2023-09-21T03:42:58.533Z,18.19
2023-09-21T03:47:53.134Z,18.27
2023-09-21T03:52:48.849Z,18.29
2023-09-21T03:57:42.349Z,18.25
2023-09-21T04:02:38.958Z,18.50
2023-09-21T04:07:32.357Z,18.54
2023-09-21T04:12:25.732Z,18.68
2023-09-21T04:17:19.146Z,18.80
2023-09-21T04:22:13.943Z,18.93
2023-09-21T04:27:07.349Z,18.93
2023-09-21T04:32:02.295Z,19.01
2023-09-21T04:36:55.885Z,19.08
2023-09-21T04:41:50.667Z,18.99
2023-09-21T04:46:44.426Z,19.15
2023-09-21T04:51:39.854Z,19.14
2023-09-21T04:56:33.527Z,18.91
2023-09-21T05:01:29.515Z,19.25
2023-09-21T05:06:24.921Z,19.43
2023-09-21T05:11:18.400Z,19.48
2023-09-21T05:16:11.905Z,19.69
2023-09-21T05:21:06.665Z,19.76
2023-09-21T05:25:59.984Z,19.80
2023-09-21T05:30:55.318Z,19.92
2023-09-21T05:35:55.683Z,20.08
2023-09-21T05:40:50.550Z,20.29
2023-09-21T05:45:43.774Z,20.39
2023-09-21T05:50:37.143Z,20.46
2023-09-21T05:55:30.455Z,19.44
2023-09-21T06:00:25.206Z,20.11
2023-09-21T06:05:20.289Z,20.99
2023-09-21T06:10:14.931Z,21.15
2023-09-21T06:15:09.295Z,21.31
2023-09-21T06:20:04.893Z,21.52
2023-09-21T06:24:58.325Z,21.70
2023-09-21T06:29:51.890Z,21.96
2023-09-21T06:34:45.269Z,22.09
2023-09-21T06:39:39.898Z,22.25
2023-09-21T06:44:33.373Z,22.42
2023-09-21T06:49:28.026Z,22.63
2023-09-21T06:54:24.697Z,22.63
2023-09-21T06:59:19.513Z,22.96
2023-09-21T07:04:12.920Z,23.18
2023-09-21T07:09:06.495Z,23.30
2023-09-21T07:13:59.909Z,23.36
2023-09-21T07:18:54.611Z,23.81
2023-09-21T07:23:47.968Z,24.05
2023-09-21T07:28:41.294Z,24.30
2023-09-21T07:33:34.665Z,24.56
2023-09-21T07:38:29.463Z,24.83
2023-09-21T07:43:22.834Z,25.11
2023-09-21T07:48:17.347Z,25.35
2023-09-21T07:53:11.058Z,25.50
2023-09-21T07:58:08.710Z,25.78
2023-09-21T08:03:01.974Z,25.97
2023-09-21T08:07:55.223Z,26.23
2023-09-21T08:12:49.339Z,26.07
2023-09-21T08:17:44.801Z,26.64
2023-09-21T08:22:38.915Z,26.28
2023-09-21T08:27:32.282Z,27.15
2023-09-21T08:32:25.625Z,27.55
2023-09-21T08:37:20.542Z,28.15
2023-09-21T08:42:14.188Z,29.22
2023-09-21T08:47:27.415Z,30.18
2023-09-21T08:52:29.165Z,30.56
2023-09-21T08:57:22.513Z,31.18
2023-09-21T09:02:16.227Z,31.41
2023-09-21T09:07:09.666Z,31.81
2023-09-21T09:12:04.366Z,31.84
2023-09-21T09:16:57.546Z,31.84
2023-09-21T09:21:53.352Z,31.61
2023-09-21T09:26:46.585Z,31.70
2023-09-21T09:31:43.636Z,31.69
2023-09-21T09:36:39.914Z,31.63
2023-09-21T09:41:33.503Z,31.62
2023-09-21T09:46:28.903Z,31.37
2023-09-21T09:51:32.310Z,31.16
2023-09-21T09:56:28.098Z,31.05
2023-09-21T10:01:23.085Z,30.89
2023-09-21T10:06:19.748Z,30.68
2023-09-21T10:11:16.328Z,30.45
2023-09-21T10:16:14.533Z,30.38
2023-09-21T10:21:33.124Z,30.47
2023-09-21T10:26:27.938Z,30.59
2023-09-21T10:31:26.192Z,30.69
2023-09-21T10:36:21.236Z,30.77
2023-09-21T10:41:36.197Z,30.95
2023-09-21T10:46:33.519Z,30.77
2023-09-21T10:51:32.506Z,31.10
2023-09-21T10:56:26.268Z,31.29
2023-09-21T11:01:22.827Z,31.06
2023-09-21T11:06:17.584Z,31.03
2023-09-21T11:11:13.846Z,31.08
2023-09-21T11:16:07.446Z,31.27
2023-09-21T11:21:02.321Z,31.84
2023-09-21T11:25:55.591Z,32.48
2023-09-21T11:30:52.240Z,32.96
2023-09-21T11:35:47.498Z,32.43
2023-09-21T11:40:42.714Z,33.66
2023-09-21T11:45:37.287Z,33.85
2023-09-21T11:50:33.565Z,33.80
2023-09-21T11:55:28.802Z,33.33
2023-09-21T12:00:48.695Z,33.20
2023-09-21T12:05:44.787Z,32.88
2023-09-21T12:10:38.186Z,32.57
2023-09-21T12:15:33.728Z,32.73
2023-09-21T12:20:27.415Z,33.32
2023-09-21T12:25:21.639Z,33.89
2023-09-21T12:30:17.803Z,34.46
2023-09-21T12:35:18.382Z,34.70
2023-09-21T12:40:13.841Z,35.38
2023-09-21T12:45:08.702Z,36.01
2023-09-21T12:50:02.238Z,36.40
2023-09-21T12:54:57.029Z,36.82
2023-09-21T12:59:51.267Z,36.98
2023-09-21T13:04:46.075Z,36.94
2023-09-21T13:14:41.833Z,36.26
2023-09-21T13:19:35.179Z,36.27
2023-09-21T13:24:28.457Z,36.46
2023-09-21T13:29:21.848Z,36.15
2023-09-21T13:34:16.570Z,36.08
2023-09-21T13:39:10.426Z,35.66
2023-09-21T13:44:04.101Z,35.35
2023-09-21T13:48:58.345Z,35.15
2023-09-21T13:53:53.080Z,35.10
2023-09-21T13:58:46.305Z,34.79
2023-09-21T14:03:39.968Z,33.83
2023-09-21T14:08:33.409Z,33.43
2023-09-21T14:13:28.155Z,32.78
2023-09-21T14:18:21.584Z,32.27
2023-09-21T14:23:17.532Z,31.75
2023-09-21T14:28:11.261Z,31.34
2023-09-21T14:33:08.702Z,30.98
2023-09-21T14:38:02.300Z,30.74
2023-09-21T14:42:56.345Z,30.54
2023-09-21T14:47:49.896Z,30.45
2023-09-21T14:52:44.501Z,30.28
2023-09-21T14:57:37.905Z,30.09
2023-09-21T15:02:32.582Z,29.99
2023-09-21T15:07:27.379Z,29.86
2023-09-21T15:12:22.207Z,29.70
2023-09-21T15:17:15.606Z,29.60
2023-09-21T15:22:09.017Z,29.60
2023-09-21T15:27:02.330Z,29.55
2023-09-21T15:31:57.848Z,29.48
2023-09-21T15:36:51.462Z,29.37
2023-09-21T15:41:44.810Z,29.29
2023-09-21T15:46:39.640Z,29.20
2023-09-21T15:51:34.875Z,29.19
2023-09-21T15:56:28.130Z,28.86
2023-09-21T16:01:21.485Z,28.95
2023-09-21T16:06:14.951Z,28.86
2023-09-21T16:11:09.824Z,28.78
2023-09-21T16:16:06.075Z,28.57
2023-09-21T16:20:59.526Z,28.53
2023-09-21T16:25:53.013Z,28.42
2023-09-21T16:30:48.137Z,28.31
2023-09-21T16:35:41.414Z,28.24
2023-09-21T16:40:36.887Z,27.88
2023-09-21T16:45:33.156Z,27.97
2023-09-21T16:50:28.526Z,27.94
2023-09-21T16:55:24.123Z,27.86
2023-09-21T17:00:18.456Z,27.81
2023-09-21T17:05:11.730Z,27.68
2023-09-21T17:10:07.893Z,27.65
2023-09-21T17:15:01.177Z,27.65
2023-09-21T17:19:55.389Z,27.66
2023-09-21T17:24:52.050Z,27.76
2023-09-21T17:29:47.494Z,27.81
2023-09-21T17:34:41.086Z,27.73
2023-09-21T17:39:34.652Z,27.72
2023-09-21T17:44:29.033Z,27.71
2023-09-21T17:49:23.809Z,27.71
2023-09-21T17:54:17.258Z,27.78
2023-09-21T17:59:10.469Z,27.75
2023-09-21T18:04:04.282Z,27.35
2023-09-21T18:08:59.063Z,27.71
2023-09-21T18:13:52.872Z,26.75
2023-09-21T18:18:48.001Z,27.69
2023-09-21T18:23:42.596Z,27.71
2023-09-21T18:28:38.352Z,27.63
2023-09-21T18:33:31.576Z,27.53
2023-09-21T18:38:27.895Z,26.62
2023-09-21T18:43:21.921Z,27.24
2023-09-21T18:48:16.608Z,27.04
2023-09-21T18:53:09.993Z,27.00
2023-09-21T18:58:03.175Z,27.08
2023-09-21T19:02:56.476Z,26.59
2023-09-21T19:07:51.254Z,26.97
2023-09-21T19:12:44.743Z,26.87
2023-09-21T19:17:40.221Z,26.93
2023-09-21T19:22:35.825Z,26.91
2023-09-21T19:27:31.640Z,26.62
2023-09-21T19:32:25.328Z,26.56
2023-09-21T19:37:19.649Z,26.49
2023-09-21T19:42:13.147Z,26.51
2023-09-21T19:47:08.133Z,26.35
2023-09-21T19:52:01.512Z,26.20
2023-09-21T19:56:55.552Z,26.09
2023-09-21T20:01:48.816Z,25.96
2023-09-21T20:06:46.070Z,25.59
2023-09-21T20:11:39.527Z,25.57
2023-09-21T20:16:32.823Z,25.42
2023-09-21T20:21:27.541Z,25.41
2023-09-21T20:26:22.329Z,25.50
2023-09-21T20:31:15.783Z,25.62
2023-09-21T20:36:09.688Z,25.75
2023-09-21T20:41:02.911Z,25.86
2023-09-21T20:45:57.615Z,25.88
2023-09-21T20:50:51.167Z,25.89
2023-09-21T20:55:44.393Z,25.96
2023-09-21T21:00:37.564Z,25.90
2023-09-21T21:05:32.376Z,25.94
2023-09-21T21:10:25.740Z,25.88
2023-09-21T21:15:19.096Z,25.81
2023-09-21T21:20:13.419Z,25.67
2023-09-21T21:25:09.430Z,25.62
2023-09-21T21:30:04.241Z,25.58
2023-09-21T21:34:57.544Z,25.32
2023-09-21T21:39:50.781Z,25.40
2023-09-21T21:44:45.563Z,25.39
2023-09-21T21:49:38.857Z,25.30
2023-09-21T21:54:32.046Z,25.23
2023-09-21T21:59:25.742Z,25.09
2023-09-21T22:04:20.374Z,24.99
2023-09-21T22:09:14.262Z,24.84
2023-09-21T22:14:08.412Z,24.88
2023-09-21T22:19:01.700Z,24.89
2023-09-21T22:23:56.475Z,24.74
2023-09-21T22:28:49.646Z,24.67
2023-09-21T22:33:42.823Z,23.96
2023-09-21T22:38:37.060Z,24.52
2023-09-21T22:43:33.297Z,24.44
2023-09-21T22:48:26.897Z,24.46
2023-09-21T22:53:21.990Z,24.40
2023-09-21T22:58:15.142Z,24.47
2023-09-21T23:03:09.728Z,24.42
2023-09-21T23:08:06.719Z,24.47
2023-09-21T23:13:00.426Z,24.33
2023-09-21T23:17:53.872Z,23.99
2023-09-21T23:22:50.908Z,24.37
2023-09-21T23:27:44.353Z,24.28
2023-09-21T23:32:38.498Z,24.23
2023-09-21T23:37:31.757Z,24.20
2023-09-21T23:42:29.840Z,24.11
2023-09-21T23:47:23.261Z,23.84
2023-09-21T23:52:17.034Z,23.79
2023-09-21T23:57:10.224Z,23.72
